createdAt,value
2018-06-10T00:01:17.277Z,96491.00
2018-06-10T00:03:44.391Z,96483.95
2018-06-10T00:06:11.537Z,96491.73
2018-06-10T00:08:38.664Z,96494.30
2018-06-10T00:11:05.850Z,96492.63
2018-06-10T00:13:32.976Z,96490.48
2018-06-10T00:16:00.148Z,96497.69
2018-06-10T00:18:27.325Z,96500.06
2018-06-10T00:20:54.480Z,96503.47
2018-06-10T00:23:21.612Z,96493.67
2018-06-10T00:25:48.753Z,96489.48
2018-06-10T00:28:20.425Z,96487.37
2018-06-10T00:30:47.552Z,96492.05
2018-06-10T00:33:14.656Z,96485.17
2018-06-10T00:35:41.804Z,96482.30
2018-06-10T00:38:08.892Z,96480.08
2018-06-10T00:40:36.027Z,96477.31
2018-06-10T00:43:03.204Z,96472.05
2018-06-10T00:45:30.341Z,96471.87
2018-06-10T00:47:57.511Z,96469.39
2018-06-10T00:50:24.688Z,96468.32
2018-06-10T00:52:51.848Z,96462.86
2018-06-10T00:55:19.108Z,96462.98
2018-06-10T00:57:46.273Z,96461.36
2018-06-10T01:00:13.420Z,96461.58
2018-06-10T01:02:40.536Z,96455.39
2018-06-10T01:05:07.681Z,96454.25
2018-06-10T01:07:34.836Z,96456.73
2018-06-10T01:10:01.972Z,96452.41
2018-06-10T01:12:29.157Z,96448.25
2018-06-10T01:14:56.321Z,96441.59
2018-06-10T01:17:23.481Z,96437.69
2018-06-10T01:19:50.634Z,96437.17
2018-06-10T01:22:17.784Z,96432.73
2018-06-10T01:24:44.933Z,96432.93
2018-06-10T01:27:12.092Z,96435.91
2018-06-10T01:29:39.225Z,96435.93
2018-06-10T01:32:06.400Z,96440.38
2018-06-10T01:34:33.554Z,96345.42
2018-06-10T01:37:00.712Z,96434.37
2018-06-10T01:39:27.815Z,96424.59
2018-06-10T01:41:54.973Z,96426.76
2018-06-10T01:44:22.082Z,96430.20
2018-06-10T01:46:49.202Z,96444.89
2018-06-10T01:49:16.301Z,96447.89
2018-06-10T01:51:43.479Z,96457.87
2018-06-10T01:54:11.558Z,96452.47
2018-06-10T01:56:38.847Z,96450.25
2018-06-10T01:59:05.993Z,96459.63
2018-06-10T02:01:33.172Z,96458.73
2018-06-10T02:04:00.278Z,96463.29
2018-06-10T02:06:27.442Z,96458.17
2018-06-10T02:08:54.592Z,96467.18
2018-06-10T02:11:21.743Z,96462.14
2018-06-10T02:13:48.873Z,96460.41
2018-06-10T02:16:16.017Z,96453.72
2018-06-10T02:18:43.176Z,96453.62
2018-06-10T02:21:10.334Z,96464.30
2018-06-10T02:23:37.456Z,96467.05
2018-06-10T02:26:04.589Z,96470.20
2018-06-10T02:28:31.754Z,96475.11
2018-06-10T02:30:58.892Z,96477.09
2018-06-10T02:33:25.980Z,96475.72
2018-06-10T02:35:53.109Z,96475.55
2018-06-10T02:38:20.253Z,96475.70
2018-06-10T02:40:47.433Z,96479.75
2018-06-10T02:43:14.584Z,96490.45
2018-06-10T02:45:41.764Z,96484.23
2018-06-10T02:48:08.903Z,96484.53
2018-06-10T02:50:36.079Z,96488.20
2018-06-10T02:53:03.236Z,96491.30
2018-06-10T02:55:30.477Z,96497.53
2018-06-10T02:57:57.620Z,96433.52
2018-06-10T03:00:24.762Z,96496.00
2018-06-10T03:02:51.960Z,96493.19
2018-06-10T03:05:19.103Z,96498.97
2018-06-10T03:07:46.268Z,96498.84
2018-06-10T03:10:13.371Z,96496.77
2018-06-10T03:12:40.519Z,96496.48
2018-06-10T03:15:07.673Z,96499.95
2018-06-10T03:17:34.833Z,96501.66
2018-06-10T03:20:02.000Z,96491.82
2018-06-10T03:22:29.176Z,96495.34
2018-06-10T03:24:56.372Z,96486.70
2018-06-10T03:27:23.529Z,96490.88
2018-06-10T03:29:50.685Z,96484.56
2018-06-10T03:32:17.820Z,96485.50
2018-06-10T03:34:44.943Z,96479.91
2018-06-10T03:37:12.096Z,96479.87
2018-06-10T03:39:39.304Z,96477.12
2018-06-10T03:42:06.461Z,96486.53
2018-06-10T03:44:33.584Z,96485.28
2018-06-10T03:47:00.697Z,96481.44
2018-06-10T03:49:27.844Z,96479.13
2018-06-10T03:51:54.937Z,96479.42
2018-06-10T03:54:22.055Z,96481.89
2018-06-10T03:56:49.237Z,96482.29
2018-06-10T03:59:16.340Z,96471.87
2018-06-10T04:01:43.539Z,96475.45
2018-06-10T04:04:10.666Z,96474.52
2018-06-10T04:06:37.803Z,96484.62
2018-06-10T04:09:06.228Z,96482.56
2018-06-10T04:11:33.368Z,96486.80
2018-06-10T04:14:00.521Z,96486.08
2018-06-10T04:16:28.396Z,96485.09
2018-06-10T04:18:55.907Z,96487.81
2018-06-10T04:21:23.069Z,96485.08
2018-06-10T04:23:50.195Z,96486.86
2018-06-10T04:26:17.327Z,96491.80
2018-06-10T04:28:44.514Z,96485.88
2018-06-10T04:31:11.663Z,96491.25
2018-06-10T04:33:38.796Z,96492.33
2018-06-10T04:36:05.983Z,96499.53
2018-06-10T04:38:33.088Z,96496.42
2018-06-10T04:41:00.275Z,96497.03
2018-06-10T04:43:27.424Z,96497.16
2018-06-10T04:45:54.545Z,96501.63
2018-06-10T04:48:21.689Z,96495.20
2018-06-10T04:50:48.848Z,96494.06
2018-06-10T04:53:15.997Z,96496.70
2018-06-10T04:55:43.213Z,96504.19
2018-06-10T04:58:10.586Z,96497.78
2018-06-10T05:00:37.741Z,96500.27
2018-06-10T05:03:04.927Z,96495.98
2018-06-10T05:05:32.048Z,96494.89
2018-06-10T05:07:59.215Z,96495.72
2018-06-10T05:10:26.342Z,96502.41
2018-06-10T05:12:53.444Z,96496.27
2018-06-10T05:15:20.558Z,96505.15
2018-06-10T05:17:47.741Z,96504.64
2018-06-10T05:20:14.925Z,96506.73
2018-06-10T05:22:42.018Z,96511.09
2018-06-10T05:25:09.149Z,96516.63
2018-06-10T05:27:36.305Z,96513.85
2018-06-10T05:30:03.599Z,96505.97
2018-06-10T05:32:30.796Z,96508.69
2018-06-10T05:34:57.940Z,96510.40
2018-06-10T05:37:25.084Z,96516.25
2018-06-10T05:39:52.248Z,96515.06
2018-06-10T05:42:19.373Z,96522.08
2018-06-10T05:44:46.488Z,96520.92
2018-06-10T05:47:13.648Z,96519.66
2018-06-10T05:49:40.801Z,96523.87
2018-06-10T05:52:07.986Z,96521.16
2018-06-10T05:54:35.147Z,96526.19
2018-06-10T05:57:02.292Z,96526.67
2018-06-10T05:59:29.450Z,96526.34
2018-06-10T06:01:56.666Z,96531.28
2018-06-10T06:04:23.812Z,96534.22
2018-06-10T06:06:50.999Z,96531.73
2018-06-10T06:09:18.128Z,96532.56
2018-06-10T06:11:45.299Z,96531.23
2018-06-10T06:14:12.429Z,96539.58
2018-06-10T06:16:39.604Z,96532.17
2018-06-10T06:19:06.709Z,96531.66
2018-06-10T06:21:33.808Z,96531.43
2018-06-10T06:24:00.936Z,96535.05
2018-06-10T06:26:28.136Z,96528.20
2018-06-10T06:28:55.312Z,96529.17
2018-06-10T06:31:22.455Z,96532.95
2018-06-10T06:33:49.591Z,96522.67
2018-06-10T06:36:16.875Z,96529.82
2018-06-10T06:38:44.033Z,96525.38
2018-06-10T06:41:11.218Z,96524.48
2018-06-10T06:43:38.352Z,96514.16
2018-06-10T06:46:05.522Z,96520.47
2018-06-10T06:48:32.645Z,96519.89
2018-06-10T06:50:59.763Z,96524.11
2018-06-10T06:53:26.869Z,96525.25
2018-06-10T06:55:54.101Z,96529.88
2018-06-10T06:58:21.195Z,96532.73
2018-06-10T07:00:48.356Z,96521.47
2018-06-10T07:03:15.512Z,96517.39
2018-06-10T07:05:42.673Z,96520.86
2018-06-10T07:08:09.841Z,96524.70
2018-06-10T07:10:37.042Z,96522.40
2018-06-10T07:13:04.161Z,96524.29
2018-06-10T07:15:31.327Z,96527.95
2018-06-10T07:17:58.496Z,96531.41
2018-06-10T07:20:32.524Z,96530.82
2018-06-10T07:22:59.755Z,96525.28
2018-06-10T07:25:26.908Z,96528.91
2018-06-10T07:27:54.042Z,96522.23
2018-06-10T07:30:21.198Z,96522.95
2018-06-10T07:32:48.324Z,96526.92
2018-06-10T07:35:15.413Z,96523.36
2018-06-10T07:37:42.517Z,96524.11
2018-06-10T07:40:09.713Z,96525.03
2018-06-10T07:42:36.846Z,96520.45
2018-06-10T07:45:03.964Z,96522.53
2018-06-10T07:47:31.090Z,96517.23
2018-06-10T07:49:58.262Z,96520.84
2018-06-10T07:52:25.516Z,96518.13
2018-06-10T07:54:52.683Z,96517.98
2018-06-10T07:57:19.860Z,96518.39
2018-06-10T07:59:47.055Z,96514.76
2018-06-10T08:02:14.212Z,96515.70
2018-06-10T08:04:41.367Z,96514.84
2018-06-10T08:07:08.557Z,96508.91
2018-06-10T08:09:35.796Z,96510.23
2018-06-10T08:12:02.967Z,96510.21
2018-06-10T08:14:30.118Z,96503.20
2018-06-10T08:16:57.315Z,96507.23
2018-06-10T08:19:24.486Z,96507.86
2018-06-10T08:21:51.681Z,96505.17
2018-06-10T08:24:18.842Z,96501.22
2018-06-10T08:26:45.985Z,96504.05
2018-06-10T08:29:13.140Z,96512.30
2018-06-10T08:31:40.310Z,96509.02
2018-06-10T08:34:07.468Z,96505.34
2018-06-10T08:36:34.628Z,96508.81
2018-06-10T08:39:01.814Z,96502.64
2018-06-10T08:41:28.936Z,96502.29
2018-06-10T08:43:56.152Z,96505.72
2018-06-10T08:46:23.230Z,96505.92
2018-06-10T08:48:50.407Z,96490.44
2018-06-10T08:51:17.544Z,96501.08
2018-06-10T08:53:44.673Z,96494.49
2018-06-10T08:56:11.792Z,96497.48
2018-06-10T08:58:38.967Z,96494.98
2018-06-10T09:01:06.093Z,96487.98
2018-06-10T09:03:33.236Z,96484.72
2018-06-10T09:06:00.395Z,96491.59
2018-06-10T09:08:27.604Z,96486.06
2018-06-10T09:10:54.735Z,96488.46
2018-06-10T09:13:21.868Z,96480.31
2018-06-10T09:15:49.002Z,96484.80
2018-06-10T09:18:16.115Z,96482.52
2018-06-10T09:20:43.251Z,96472.52
2018-06-10T09:23:10.351Z,96468.05
2018-06-10T09:25:37.463Z,96471.34
2018-06-10T09:28:04.813Z,96473.63
2018-06-10T09:30:31.968Z,96468.20
2018-06-10T09:32:59.151Z,96468.09
2018-06-10T09:35:26.308Z,96462.12
2018-06-10T09:37:53.452Z,96462.64
2018-06-10T09:40:20.637Z,96463.44
2018-06-10T09:42:47.793Z,96461.00
2018-06-10T09:45:14.929Z,96461.91
2018-06-10T09:47:42.050Z,96466.08
2018-06-10T09:50:09.228Z,96448.38
2018-06-10T09:52:36.382Z,96452.41
2018-06-10T09:55:03.655Z,96446.38
2018-06-10T09:57:30.750Z,96456.07
2018-06-10T09:59:57.895Z,96446.25
2018-06-10T10:02:25.064Z,96449.89
2018-06-10T10:04:52.202Z,96447.95
2018-06-10T10:07:19.356Z,96449.96
2018-06-10T10:09:46.480Z,96442.86
2018-06-10T10:12:13.647Z,96447.73
2018-06-10T10:14:40.832Z,96449.42
2018-06-10T10:17:07.943Z,96438.33
2018-06-10T10:19:35.048Z,96434.31
2018-06-10T10:22:02.291Z,96433.38
2018-06-10T10:24:29.408Z,96435.61
2018-06-10T10:26:56.566Z,96434.75
2018-06-10T10:29:23.733Z,96439.45
2018-06-10T10:31:50.899Z,96432.25
2018-06-10T10:34:18.024Z,96430.78
2018-06-10T10:36:45.135Z,96433.48
2018-06-10T10:39:12.374Z,96428.08
2018-06-10T10:41:39.505Z,96422.45
2018-06-10T10:44:06.624Z,96417.88
2018-06-10T10:46:33.779Z,96425.09
2018-06-10T10:49:00.916Z,96423.08
2018-06-10T10:51:28.134Z,96421.02
2018-06-10T10:53:55.237Z,96417.39
2018-06-10T10:56:22.385Z,96412.96
2018-06-10T10:58:49.538Z,96412.47
2018-06-10T11:01:16.800Z,96400.88
2018-06-10T11:03:44.024Z,96412.78
2018-06-10T11:06:11.117Z,96407.06
2018-06-10T11:08:38.231Z,96411.91
2018-06-10T11:11:05.470Z,96414.34
2018-06-10T11:13:32.580Z,96415.17
2018-06-10T11:15:59.715Z,96403.81
2018-06-10T11:18:26.861Z,96411.97
2018-06-10T11:20:54.006Z,96407.37
2018-06-10T11:23:21.132Z,96411.69
2018-06-10T11:25:48.301Z,96413.08
2018-06-10T11:28:15.660Z,96413.52
2018-06-10T11:30:42.831Z,96405.42
2018-06-10T11:33:10.021Z,96406.77
2018-06-10T11:35:37.120Z,96401.91
2018-06-10T11:38:04.265Z,96403.05
2018-06-10T11:40:31.388Z,96398.35
2018-06-10T11:42:58.620Z,96395.54
2018-06-10T11:45:25.780Z,96382.33
2018-06-10T11:47:52.972Z,96384.48
2018-06-10T11:50:20.117Z,96391.30
2018-06-10T11:52:47.233Z,96388.69
2018-06-10T11:55:14.365Z,96391.56
2018-06-10T11:57:41.542Z,96392.77
2018-06-10T12:00:08.675Z,96373.52
2018-06-10T12:02:35.819Z,96374.98
2018-06-10T12:05:03.129Z,96367.84
2018-06-10T12:07:30.277Z,96364.98
2018-06-10T12:09:57.398Z,96369.54
2018-06-10T12:12:25.377Z,96382.30
2018-06-10T12:14:52.512Z,96369.41
2018-06-10T12:17:20.248Z,96370.20
2018-06-10T12:19:47.404Z,96367.45
2018-06-10T12:22:14.569Z,96381.36
2018-06-10T12:24:41.666Z,96369.06
2018-06-10T12:27:08.817Z,96375.55
2018-06-10T12:29:35.925Z,96369.36
2018-06-10T12:32:03.061Z,96367.38
2018-06-10T12:34:30.208Z,96369.75
2018-06-10T12:36:57.383Z,96364.36
2018-06-10T12:39:24.586Z,96371.86
2018-06-10T12:41:51.762Z,96375.54
2018-06-10T12:44:18.896Z,96380.44
2018-06-10T12:46:46.077Z,96387.02
2018-06-10T12:49:13.263Z,96378.20
2018-06-10T12:51:40.346Z,96367.53
2018-06-10T12:54:07.511Z,96371.09
2018-06-10T12:56:34.692Z,96365.87
2018-06-10T12:59:01.889Z,96371.18
2018-06-10T13:01:29.091Z,96373.90
2018-06-10T13:03:56.414Z,96379.70
2018-06-10T13:06:23.579Z,96380.73
2018-06-10T13:08:50.742Z,96365.34
2018-06-10T13:11:17.878Z,96370.02
2018-06-10T13:13:45.058Z,96363.34
2018-06-10T13:16:12.264Z,96359.55
2018-06-10T13:18:39.989Z,96362.02
2018-06-10T13:21:07.164Z,96364.55
2018-06-10T13:23:34.397Z,96366.23
2018-06-10T13:26:01.636Z,96356.81
2018-06-10T13:28:28.809Z,96369.23
2018-06-10T13:30:56.011Z,96366.17
2018-06-10T13:33:23.223Z,96365.05
2018-06-10T13:35:50.421Z,96365.05
2018-06-10T13:38:17.642Z,96358.87
2018-06-10T13:40:44.854Z,96362.69
2018-06-10T13:43:12.051Z,96358.00
2018-06-10T13:45:39.288Z,96352.14
2018-06-10T13:48:06.847Z,96338.12
2018-06-10T13:50:34.016Z,96337.98
2018-06-10T13:53:01.225Z,96337.59
2018-06-10T13:55:28.404Z,96331.25
2018-06-10T13:57:55.659Z,96336.65
2018-06-10T14:00:22.831Z,96325.33
2018-06-10T14:02:50.078Z,96327.69
2018-06-10T14:05:17.362Z,96325.91
2018-06-10T14:07:44.606Z,96325.31
2018-06-10T14:10:11.786Z,96313.93
2018-06-10T14:12:39.011Z,96331.11
2018-06-10T14:15:06.277Z,96325.41
2018-06-10T14:17:33.450Z,96327.33
2018-06-10T14:20:00.666Z,96332.77
2018-06-10T14:22:27.847Z,96321.66
2018-06-10T14:24:55.044Z,96319.12
2018-06-10T14:27:22.209Z,96321.88
2018-06-10T14:29:49.421Z,96317.44
2018-06-10T14:32:16.630Z,96317.72
2018-06-10T14:34:43.805Z,96316.22
2018-06-10T14:37:11.094Z,96307.45
2018-06-10T14:39:38.327Z,96302.44
2018-06-10T14:42:05.790Z,96306.99
2018-06-10T14:44:32.979Z,96306.02
2018-06-10T14:47:00.129Z,96307.53
2018-06-10T14:49:27.363Z,96311.30
2018-06-10T14:51:54.581Z,96305.86
2018-06-10T14:54:21.752Z,96305.77
2018-06-10T14:56:48.930Z,96302.88
2018-06-10T14:59:16.125Z,96296.47
2018-06-10T15:01:43.335Z,96292.30
2018-06-10T15:04:10.577Z,96291.58
2018-06-10T15:06:37.754Z,96292.84
2018-06-10T15:09:07.278Z,96289.44
2018-06-10T15:11:34.402Z,96291.14
2018-06-10T15:14:01.597Z,96287.39
2018-06-10T15:16:28.825Z,96277.42
2018-06-10T15:18:56.038Z,96279.57
2018-06-10T15:21:23.211Z,96280.42
2018-06-10T15:23:50.415Z,96285.12
2018-06-10T15:26:17.689Z,96283.84
2018-06-10T15:28:44.907Z,96286.95
2018-06-10T15:31:12.037Z,96286.53
2018-06-10T15:33:39.200Z,96284.30
2018-06-10T15:36:06.365Z,96285.80
2018-06-10T15:38:33.513Z,96287.88
2018-06-10T15:41:00.614Z,96286.66
2018-06-10T15:43:27.835Z,96293.22
2018-06-10T15:45:55.017Z,96290.75
2018-06-10T15:48:22.188Z,96288.70
2018-06-10T15:50:49.356Z,96291.28
2018-06-10T15:53:16.528Z,96297.98
2018-06-10T15:55:43.699Z,96297.19
2018-06-10T15:58:10.858Z,96306.84
2018-06-10T16:00:38.076Z,96306.63
2018-06-10T16:03:05.237Z,96305.59
2018-06-10T16:05:32.486Z,96298.47
2018-06-10T16:07:59.686Z,96306.85
2018-06-10T16:10:26.850Z,96308.11
2018-06-10T16:12:54.050Z,96304.45
2018-06-10T16:15:21.215Z,96300.31
2018-06-10T16:17:48.442Z,96307.77
2018-06-10T16:20:15.528Z,96307.70
2018-06-10T16:22:42.755Z,96302.34
2018-06-10T16:25:09.895Z,96304.98
2018-06-10T16:27:37.057Z,96314.63
2018-06-10T16:30:05.001Z,96312.73
2018-06-10T16:32:32.208Z,96311.81
2018-06-10T16:34:59.337Z,96310.19
2018-06-10T16:37:27.742Z,96317.66
2018-06-10T16:39:54.919Z,96311.28
2018-06-10T16:42:22.138Z,96314.69
2018-06-10T16:44:49.313Z,96314.75
2018-06-10T16:47:16.505Z,96317.15
2018-06-10T16:49:43.745Z,96307.57
2018-06-10T16:52:10.957Z,96308.47
2018-06-10T16:54:38.166Z,96311.36
2018-06-10T16:57:05.341Z,96309.39
2018-06-10T16:59:32.578Z,96312.58
2018-06-10T17:01:59.697Z,96308.08
2018-06-10T17:04:26.885Z,96314.95
2018-06-10T17:06:54.005Z,96309.33
2018-06-10T17:09:21.199Z,96301.27
2018-06-10T17:11:48.449Z,96295.34
2018-06-10T17:14:15.608Z,96300.58
2018-06-10T17:16:43.648Z,96308.41
2018-06-10T17:19:10.852Z,96310.59
2018-06-10T17:21:38.014Z,96312.64
2018-06-10T17:24:05.231Z,96310.52
2018-06-10T17:26:32.433Z,96309.75
2018-06-10T17:28:59.645Z,96316.19
2018-06-10T17:31:26.847Z,96309.42
2018-06-10T17:33:54.001Z,96306.58
2018-06-10T17:36:21.162Z,96304.20
2018-06-10T17:38:48.332Z,96308.87
2018-06-10T17:41:15.498Z,96317.98
2018-06-10T17:43:42.665Z,96324.91
2018-06-10T17:46:09.865Z,96329.34
2018-06-10T17:48:37.061Z,96329.56
2018-06-10T17:51:04.258Z,96334.72
2018-06-10T17:53:31.417Z,96331.95
2018-06-10T17:55:58.583Z,96333.38
2018-06-10T17:58:25.714Z,96325.72
2018-06-10T18:00:52.826Z,96329.02
2018-06-10T18:03:20.012Z,96338.48
2018-06-10T18:05:47.149Z,96339.34
2018-06-10T18:08:14.314Z,96338.12
2018-06-10T18:10:41.520Z,96347.09
2018-06-10T18:13:09.107Z,96348.22
2018-06-10T18:15:36.330Z,96344.05
2018-06-10T18:18:03.530Z,96339.17
2018-06-10T18:20:30.699Z,96343.48
2018-06-10T18:22:57.851Z,96347.59
2018-06-10T18:25:25.036Z,96355.73
2018-06-10T18:27:52.335Z,96357.75
2018-06-10T18:30:19.550Z,96349.31
2018-06-10T18:32:46.733Z,96353.02
2018-06-10T18:35:14.282Z,96355.22
2018-06-10T18:37:41.438Z,96355.91
2018-06-10T18:40:08.585Z,96355.91
2018-06-10T18:42:35.820Z,96357.09
2018-06-10T18:45:03.120Z,96354.45
2018-06-10T18:47:30.459Z,96358.09
2018-06-10T18:49:57.617Z,96359.48
2018-06-10T18:52:24.799Z,96369.41
2018-06-10T18:54:51.983Z,96363.36
2018-06-10T18:57:19.149Z,96356.42
2018-06-10T18:59:46.335Z,96356.98
2018-06-10T19:02:13.498Z,96348.75
2018-06-10T19:04:40.710Z,96352.55
2018-06-10T19:07:07.902Z,96353.66
2018-06-10T19:09:35.101Z,96354.59
2018-06-10T19:12:02.351Z,96358.02
2018-06-10T19:14:29.537Z,96357.48
2018-06-10T19:16:56.748Z,96366.89
2018-06-10T19:19:23.952Z,96363.44
2018-06-10T19:21:51.149Z,96357.22
2018-06-10T19:24:18.348Z,96365.75
2018-06-10T19:26:45.587Z,96375.58
2018-06-10T19:29:12.864Z,96385.27
2018-06-10T19:31:39.993Z,96390.30
2018-06-10T19:34:07.189Z,96387.32
2018-06-10T19:36:34.365Z,96388.59
2018-06-10T19:39:01.632Z,96386.25
2018-06-10T19:41:28.806Z,96397.40
2018-06-10T19:43:55.988Z,96396.69
2018-06-10T19:46:23.253Z,96396.91
2018-06-10T19:48:50.450Z,96401.47
2018-06-10T19:51:17.652Z,96402.01
2018-06-10T19:53:44.817Z,96404.16
2018-06-10T19:56:12.008Z,96405.27
2018-06-10T19:58:39.229Z,96409.63
2018-06-10T20:01:06.388Z,96409.55
2018-06-10T20:03:33.581Z,96403.94
2018-06-10T20:06:00.760Z,96411.93
2018-06-10T20:08:27.999Z,96408.59
2018-06-10T20:10:55.218Z,96409.45
2018-06-10T20:13:22.377Z,96411.93
2018-06-10T20:15:49.564Z,96405.12
2018-06-10T20:18:16.800Z,96404.53
2018-06-10T20:20:44.001Z,96410.91
2018-06-10T20:23:11.204Z,96415.38
2018-06-10T20:25:38.434Z,96426.00
2018-06-10T20:28:05.646Z,96424.11
2018-06-10T20:30:32.847Z,96429.13
2018-06-10T20:33:00.027Z,96430.62
2018-06-10T20:35:27.210Z,96437.43
2018-06-10T20:37:54.429Z,96435.98
2018-06-10T20:40:21.567Z,96444.78
2018-06-10T20:42:48.760Z,96447.44
2018-06-10T20:45:15.948Z,96456.31
2018-06-10T20:47:43.053Z,96451.48
2018-06-10T20:50:10.274Z,96449.61
2018-06-10T20:52:37.393Z,96456.75
2018-06-10T20:55:04.593Z,96459.46
2018-06-10T20:57:32.168Z,96460.05
2018-06-10T20:59:59.347Z,96464.97
2018-06-10T21:02:26.554Z,96459.13
2018-06-10T21:04:53.738Z,96469.88
2018-06-10T21:07:20.868Z,96473.44
2018-06-10T21:09:48.043Z,96474.02
2018-06-10T21:12:15.212Z,96474.55
2018-06-10T21:14:42.496Z,96478.17
2018-06-10T21:17:09.809Z,96479.14
2018-06-10T21:19:37.038Z,96479.91
2018-06-10T21:22:04.277Z,96484.63
2018-06-10T21:24:31.422Z,96491.20
2018-06-10T21:26:58.585Z,96478.17
2018-06-10T21:29:25.774Z,96475.70
2018-06-10T21:31:52.963Z,96472.37
2018-06-10T21:34:20.113Z,96466.03
2018-06-10T21:36:47.258Z,96462.05
2018-06-10T21:39:14.408Z,96462.86
2018-06-10T21:41:41.526Z,96463.96
2018-06-10T21:44:08.689Z,96467.51
2018-06-10T21:46:35.838Z,96478.28
2018-06-10T21:49:03.004Z,96485.75
2018-06-10T21:51:30.168Z,96487.48
2018-06-10T21:53:57.310Z,96474.98
2018-06-10T21:56:24.815Z,96483.62
2018-06-10T21:58:52.240Z,96474.80
2018-06-10T22:01:19.408Z,96475.94
2018-06-10T22:03:46.599Z,96474.58
2018-06-10T22:06:13.754Z,96471.19
2018-06-10T22:08:40.945Z,96463.67
2018-06-10T22:11:08.096Z,96473.28
2018-06-10T22:13:35.357Z,96467.14
2018-06-10T22:16:02.554Z,96459.89
2018-06-10T22:18:29.720Z,96466.56
2018-06-10T22:20:56.824Z,96458.71
2018-06-10T22:23:23.972Z,96462.74
2018-06-10T22:25:51.143Z,96461.98
2018-06-10T22:28:18.344Z,96461.02
2018-06-10T22:30:45.503Z,96468.33
2018-06-10T22:33:12.677Z,96471.39
2018-06-10T22:35:39.806Z,96480.55
2018-06-10T22:38:07.014Z,96481.64
2018-06-10T22:40:34.185Z,96482.67
2018-06-10T22:43:01.332Z,96477.15
2018-06-10T22:45:28.446Z,96481.92
2018-06-10T22:47:55.545Z,96481.15
2018-06-10T22:50:22.718Z,96489.02
2018-06-10T22:53:00.048Z,96483.85
2018-06-10T22:55:27.220Z,96497.73
2018-06-10T22:57:54.399Z,96497.50
2018-06-10T23:00:21.505Z,96495.87
2018-06-10T23:02:48.666Z,96489.00
2018-06-10T23:07:42.481Z,96497.84
2018-06-10T23:10:09.617Z,96489.94
2018-06-10T23:12:36.774Z,96486.10
2018-06-10T23:15:04.128Z,96486.45
2018-06-10T23:17:31.315Z,96482.19
2018-06-10T23:19:58.476Z,96478.73
2018-06-10T23:22:25.649Z,96476.39
2018-06-10T23:24:52.751Z,96480.02
2018-06-10T23:27:19.947Z,96484.19
2018-06-10T23:29:47.109Z,96488.77
2018-06-10T23:32:14.232Z,96485.39
2018-06-10T23:34:41.401Z,96485.44
2018-06-10T23:37:08.555Z,96480.99
2018-06-10T23:39:35.701Z,96483.91
2018-06-10T23:42:02.836Z,96484.47
2018-06-10T23:44:29.980Z,96486.65
2018-06-10T23:46:57.105Z,96482.89
2018-06-10T23:49:24.265Z,96479.81
2018-06-10T23:51:51.449Z,96474.19
2018-06-10T23:54:18.621Z,96466.80
2018-06-10T23:56:45.780Z,96469.52
2018-06-10T23:59:12.952Z,96467.72
